TFV009 LGTS-ESSA
Flight info
| Callsign | TFV009 |
|---|---|
| Flight time | 2h 50m |
| Altitude | 36000 |
| Route | FSK UN128 RUGAS DCT SIN DCT RAXAD DCT PELOV DCT PARAK DCT LITKU/N0439F380 DCT KALIF DCT BABKO DCT RATOR DCT PENOR DCT ARMOD/N0441F370 Z228 NILUG |
| Aircraft | B738/M-SDE2E3FGHIRWXY/LB1 |
Departure
| Time | 2026-05-07 08:20 |
|---|---|
| Airport | Thessaloniki Macedonia International Airport (LGTS) |
Arrival
| Time | 2026-05-07 11:10 |
|---|---|
| Airport | Stockholm-Arlanda Airport (ESSA) |
| Time | Latitude | Longitude | Altitude | Speed | Heading |
|---|---|---|---|---|---|
| 2026-05-07 08:18 | 40.52070 | 22.98575 | 27 ft | 2 kts | 68° |
| 2026-05-07 08:18 | 40.52051 | 22.98599 | 27 ft | 6 kts | 137° |
| 2026-05-07 08:18 | 40.52006 | 22.98653 | 27 ft | 11 kts | 137° |
| 2026-05-07 08:19 | 40.51916 | 22.98667 | 27 ft | 16 kts | 192° |
| 2026-05-07 08:19 | 40.51811 | 22.98701 | 27 ft | 16 kts | 166° |
| 2026-05-07 08:19 | 40.51709 | 22.98672 | 28 ft | 15 kts | 220° |
| 2026-05-07 08:19 | 40.51722 | 22.98442 | 27 ft | 58 kts | 283° |
| 2026-05-07 08:20 | 40.51884 | 22.97573 | 28 ft | 135 kts | 283° |
| 2026-05-07 08:20 | 40.52162 | 22.96127 | 260 ft | 181 kts | 284° |
| 2026-05-07 08:20 | 40.52513 | 22.94412 | 879 ft | 207 kts | 285° |
| 2026-05-07 08:20 | 40.52881 | 22.92627 | 1985 ft | 199 kts | 284° |
| 2026-05-07 08:21 | 40.53257 | 22.90811 | 2637 ft | 216 kts | 284° |
| 2026-05-07 08:21 | 40.53677 | 22.88787 | 2830 ft | 243 kts | 284° |
| 2026-05-07 08:21 | 40.54141 | 22.86548 | 3287 ft | 259 kts | 284° |
| 2026-05-07 08:21 | 40.54620 | 22.84238 | 4042 ft | 264 kts | 284° |
| 2026-05-07 08:22 | 40.55112 | 22.81899 | 4856 ft | 267 kts | 287° |
| 2026-05-07 08:22 | 40.56040 | 22.79775 | 5610 ft | 273 kts | 314° |
| 2026-05-07 08:22 | 40.57629 | 22.78405 | 6390 ft | 278 kts | 339° |
| 2026-05-07 08:22 | 40.59545 | 22.78067 | 7142 ft | 282 kts | 6° |
| 2026-05-07 08:23 | 40.61402 | 22.78893 | 7838 ft | 287 kts | 31° |
| 2026-05-07 08:23 | 40.63013 | 22.80466 | 8545 ft | 291 kts | 43° |
| 2026-05-07 08:23 | 40.64403 | 22.82425 | 9275 ft | 294 kts | 50° |
| 2026-05-07 08:23 | 40.65644 | 22.84590 | 9997 ft | 298 kts | 56° |
| 2026-05-07 08:24 | 40.66720 | 22.86961 | 10500 ft | 310 kts | 63° |
| 2026-05-07 08:24 | 40.67597 | 22.89622 | 10658 ft | 332 kts | 71° |
| 2026-05-07 08:24 | 40.68265 | 22.92637 | 10852 ft | 352 kts | 78° |
| 2026-05-07 08:24 | 40.68931 | 22.95788 | 11269 ft | 363 kts | 63° |
| 2026-05-07 08:25 | 40.70533 | 22.98342 | 11903 ft | 365 kts | 34° |
| 2026-05-07 08:25 | 40.72831 | 22.99685 | 12582 ft | 364 kts | 8° |
| 2026-05-07 08:25 | 40.75338 | 22.99607 | 13226 ft | 362 kts | 346° |
| 2026-05-07 08:25 | 40.77804 | 22.98866 | 13882 ft | 366 kts | 346° |
| 2026-05-07 08:26 | 40.82908 | 22.97959 | 15060 ft | 374 kts | 354° |
| 2026-05-07 08:26 | 40.85516 | 22.97858 | 15699 ft | 376 kts | 358° |
| 2026-05-07 08:26 | 40.88144 | 22.97897 | 16302 ft | 380 kts | 359° |
| 2026-05-07 08:27 | 40.90799 | 22.98012 | 16857 ft | 384 kts | 360° |
| 2026-05-07 08:27 | 40.93475 | 22.98161 | 17445 ft | 386 kts | 0° |
| 2026-05-07 08:27 | 40.96171 | 22.98321 | 18031 ft | 389 kts | 0° |
| 2026-05-07 08:27 | 40.98884 | 22.98480 | 18577 ft | 392 kts | 0° |
| 2026-05-07 08:28 | 41.01619 | 22.98636 | 19064 ft | 395 kts | 0° |
| 2026-05-07 08:28 | 41.04372 | 22.98791 | 19549 ft | 398 kts | 0° |
| 2026-05-07 08:28 | 41.07150 | 22.98939 | 20039 ft | 400 kts | 358° |
| 2026-05-07 08:28 | 41.09903 | 22.98495 | 20441 ft | 401 kts | 342° |
| 2026-05-07 08:29 | 41.12453 | 22.97050 | 20910 ft | 399 kts | 327° |
| 2026-05-07 08:29 | 41.14791 | 22.95069 | 21405 ft | 400 kts | 324° |
| 2026-05-07 08:29 | 41.17107 | 22.92997 | 21834 ft | 403 kts | 324° |
| 2026-05-07 08:29 | 41.19440 | 22.90899 | 22265 ft | 407 kts | 324° |
| 2026-05-07 08:30 | 41.21800 | 22.88799 | 22699 ft | 410 kts | 324° |
| 2026-05-07 08:30 | 41.24185 | 22.86701 | 23115 ft | 412 kts | 325° |
| 2026-05-07 08:30 | 41.26589 | 22.84603 | 23544 ft | 415 kts | 325° |
| 2026-05-07 08:30 | 41.29013 | 22.82492 | 23914 ft | 418 kts | 325° |
| 2026-05-07 08:31 | 41.31451 | 22.80367 | 24292 ft | 420 kts | 325° |
| 2026-05-07 08:31 | 41.33936 | 22.78315 | 24676 ft | 422 kts | 329° |
| 2026-05-07 08:31 | 41.36570 | 22.76521 | 24876 ft | 430 kts | 332° |
| 2026-05-07 08:31 | 41.39284 | 22.74796 | 25157 ft | 434 kts | 332° |
| 2026-05-07 08:32 | 41.42018 | 22.73093 | 25572 ft | 434 kts | 332° |
| 2026-05-07 08:32 | 41.44749 | 22.71383 | 25971 ft | 434 kts | 332° |
| 2026-05-07 08:32 | 41.47482 | 22.69653 | 26301 ft | 436 kts | 332° |
| 2026-05-07 08:32 | 41.50221 | 22.67899 | 26605 ft | 438 kts | 331° |
| 2026-05-07 08:33 | 41.52975 | 22.66122 | 26921 ft | 440 kts | 331° |
| 2026-05-07 08:33 | 41.55734 | 22.64333 | 27253 ft | 442 kts | 331° |
| 2026-05-07 08:33 | 41.58502 | 22.62533 | 27581 ft | 443 kts | 331° |
| 2026-05-07 08:33 | 41.61281 | 22.60723 | 27883 ft | 445 kts | 331° |
| 2026-05-07 08:34 | 41.64072 | 22.58905 | 28176 ft | 447 kts | 331° |
| 2026-05-07 08:34 | 41.66876 | 22.57076 | 28477 ft | 449 kts | 330° |
| 2026-05-07 08:34 | 41.69688 | 22.55241 | 28762 ft | 450 kts | 330° |
| 2026-05-07 08:34 | 41.72509 | 22.53398 | 29050 ft | 452 kts | 330° |
| 2026-05-07 08:35 | 41.75335 | 22.51550 | 29313 ft | 454 kts | 330° |
| 2026-05-07 08:35 | 41.78179 | 22.49688 | 29582 ft | 456 kts | 330° |
| 2026-05-07 08:35 | 41.81035 | 22.47818 | 29916 ft | 456 kts | 330° |
| 2026-05-07 08:35 | 41.83883 | 22.45952 | 30318 ft | 455 kts | 330° |
| 2026-05-07 08:36 | 41.86726 | 22.44086 | 30585 ft | 457 kts | 329° |
| 2026-05-07 08:36 | 41.89588 | 22.42205 | 30742 ft | 459 kts | 329° |
| 2026-05-07 08:36 | 41.92421 | 22.40342 | 31042 ft | 458 kts | 329° |
| 2026-05-07 08:36 | 41.95271 | 22.38468 | 31468 ft | 454 kts | 329° |
| 2026-05-07 08:37 | 41.98116 | 22.36646 | 31856 ft | 454 kts | 332° |
| 2026-05-07 08:37 | 42.01112 | 22.35255 | 32125 ft | 458 kts | 340° |
| 2026-05-07 08:37 | 42.04192 | 22.34126 | 32387 ft | 459 kts | 341° |
| 2026-05-07 08:37 | 42.07274 | 22.33047 | 32715 ft | 457 kts | 341° |
| 2026-05-07 08:38 | 42.10342 | 22.31963 | 33005 ft | 456 kts | 340° |
| 2026-05-07 08:38 | 42.13404 | 22.30853 | 33237 ft | 456 kts | 340° |
| 2026-05-07 08:38 | 42.16463 | 22.29717 | 33507 ft | 455 kts | 340° |
| 2026-05-07 08:38 | 42.19502 | 22.28574 | 33840 ft | 453 kts | 339° |
| 2026-05-07 08:39 | 42.22537 | 22.27426 | 34033 ft | 454 kts | 339° |
| 2026-05-07 08:39 | 42.25592 | 22.26269 | 34173 ft | 456 kts | 339° |
| 2026-05-07 08:39 | 42.28645 | 22.25115 | 34406 ft | 455 kts | 339° |
| 2026-05-07 08:39 | 42.31674 | 22.23929 | 34691 ft | 451 kts | 337° |
| 2026-05-07 08:40 | 42.34633 | 22.22571 | 34961 ft | 448 kts | 335° |
| 2026-05-07 08:40 | 42.37556 | 22.21114 | 35178 ft | 447 kts | 334° |
| 2026-05-07 08:40 | 42.40461 | 22.19619 | 35350 ft | 447 kts | 334° |
| 2026-05-07 08:40 | 42.43358 | 22.18118 | 35600 ft | 445 kts | 334° |
| 2026-05-07 08:41 | 42.46239 | 22.16636 | 35891 ft | 442 kts | 334° |
| 2026-05-07 08:41 | 42.49119 | 22.15167 | 36077 ft | 442 kts | 335° |
| 2026-05-07 08:41 | 42.54904 | 22.12237 | 36132 ft | 446 kts | 335° |
| 2026-05-07 08:42 | 42.60740 | 22.09299 | 36126 ft | 448 kts | 335° |
| 2026-05-07 08:42 | 42.66579 | 22.06359 | 36125 ft | 448 kts | 335° |
| 2026-05-07 08:43 | 42.72419 | 22.03413 | 36120 ft | 447 kts | 335° |
| 2026-05-07 08:43 | 42.78246 | 22.00465 | 36111 ft | 447 kts | 335° |
| 2026-05-07 08:44 | 42.84066 | 21.97513 | 36139 ft | 446 kts | 335° |
| 2026-05-07 08:44 | 42.89881 | 21.94556 | 36120 ft | 446 kts | 335° |
| 2026-05-07 08:45 | 42.95695 | 21.91598 | 36115 ft | 445 kts | 335° |
| 2026-05-07 08:45 | 43.01495 | 21.88640 | 36121 ft | 444 kts | 335° |
| 2026-05-07 08:46 | 43.07279 | 21.85683 | 36127 ft | 443 kts | 335° |
| 2026-05-07 08:46 | 43.13052 | 21.82726 | 36123 ft | 443 kts | 335° |
| 2026-05-07 08:47 | 43.18817 | 21.79766 | 36129 ft | 443 kts | 335° |
| 2026-05-07 08:47 | 43.24588 | 21.76798 | 36122 ft | 443 kts | 335° |
| 2026-05-07 08:48 | 43.30352 | 21.73828 | 36137 ft | 443 kts | 335° |
| 2026-05-07 08:48 | 43.36122 | 21.70848 | 36128 ft | 443 kts | 335° |
| 2026-05-07 08:49 | 43.41898 | 21.67858 | 36129 ft | 444 kts | 335° |
| 2026-05-07 08:49 | 43.47679 | 21.64861 | 36116 ft | 444 kts | 335° |
| 2026-05-07 08:50 | 43.53468 | 21.61853 | 36115 ft | 445 kts | 334° |
| 2026-05-07 08:50 | 43.59264 | 21.58835 | 36107 ft | 445 kts | 334° |
| 2026-05-07 08:51 | 43.65067 | 21.55807 | 36095 ft | 446 kts | 334° |
| 2026-05-07 08:51 | 43.70880 | 21.52767 | 36099 ft | 447 kts | 334° |
| 2026-05-07 08:52 | 43.76707 | 21.49714 | 36089 ft | 448 kts | 334° |
| 2026-05-07 08:52 | 43.82547 | 21.46649 | 36078 ft | 449 kts | 334° |
| 2026-05-07 08:53 | 43.88395 | 21.43572 | 36095 ft | 450 kts | 334° |
| 2026-05-07 08:53 | 43.94255 | 21.40483 | 36090 ft | 451 kts | 334° |
| 2026-05-07 08:54 | 44.00084 | 21.37404 | 36073 ft | 452 kts | 334° |
| 2026-05-07 08:54 | 44.05960 | 21.34293 | 36076 ft | 452 kts | 334° |
| 2026-05-07 08:55 | 44.11840 | 21.31173 | 36058 ft | 452 kts | 334° |
| 2026-05-07 08:55 | 44.17752 | 21.28031 | 36075 ft | 451 kts | 334° |
| 2026-05-07 08:56 | 44.23568 | 21.24932 | 36068 ft | 450 kts | 334° |
| 2026-05-07 08:56 | 44.29413 | 21.21812 | 36063 ft | 449 kts | 334° |
| 2026-05-07 08:57 | 44.35240 | 21.18693 | 36050 ft | 448 kts | 334° |
| 2026-05-07 08:57 | 44.41049 | 21.15578 | 36059 ft | 447 kts | 334° |
| 2026-05-07 08:58 | 44.46844 | 21.12463 | 36042 ft | 446 kts | 334° |
| 2026-05-07 08:58 | 44.52628 | 21.09348 | 36045 ft | 445 kts | 334° |
| 2026-05-07 08:59 | 44.58402 | 21.06231 | 36055 ft | 445 kts | 334° |
| 2026-05-07 08:59 | 44.63199 | 21.03637 | 36057 ft | 445 kts | 334° |
| 2026-05-07 09:00 | 44.68976 | 21.00507 | 36045 ft | 445 kts | 334° |
| 2026-05-07 09:00 | 44.74752 | 20.97370 | 36054 ft | 446 kts | 334° |
| 2026-05-07 09:01 | 44.80543 | 20.94218 | 36071 ft | 447 kts | 334° |
| 2026-05-07 09:01 | 44.86349 | 20.91051 | 36052 ft | 448 kts | 334° |
| 2026-05-07 09:02 | 44.92177 | 20.87866 | 36052 ft | 450 kts | 334° |
| 2026-05-07 09:02 | 44.98010 | 20.84605 | 36055 ft | 452 kts | 332° |
| 2026-05-07 09:03 | 45.03762 | 20.81030 | 36052 ft | 451 kts | 331° |
| 2026-05-07 09:03 | 45.09488 | 20.77397 | 36040 ft | 451 kts | 331° |
| 2026-05-07 09:04 | 45.15223 | 20.73788 | 36046 ft | 451 kts | 331° |
| 2026-05-07 09:04 | 45.20959 | 20.70200 | 36047 ft | 450 kts | 331° |
| 2026-05-07 09:05 | 45.26691 | 20.66614 | 36045 ft | 450 kts | 331° |
| 2026-05-07 09:05 | 45.32416 | 20.63024 | 36047 ft | 450 kts | 331° |
| 2026-05-07 09:06 | 45.38140 | 20.59426 | 36045 ft | 449 kts | 331° |
| 2026-05-07 09:06 | 45.43855 | 20.55825 | 36053 ft | 449 kts | 331° |
| 2026-05-07 09:07 | 45.49567 | 20.52218 | 36042 ft | 449 kts | 331° |
| 2026-05-07 09:07 | 45.55234 | 20.48631 | 36049 ft | 449 kts | 331° |
| 2026-05-07 09:08 | 45.60938 | 20.45012 | 36038 ft | 449 kts | 331° |
| 2026-05-07 09:08 | 45.66639 | 20.41388 | 36039 ft | 448 kts | 331° |
| 2026-05-07 09:09 | 45.72340 | 20.37756 | 36039 ft | 449 kts | 331° |
| 2026-05-07 09:09 | 45.78049 | 20.34109 | 36041 ft | 450 kts | 331° |
| 2026-05-07 09:10 | 45.83776 | 20.30443 | 36041 ft | 451 kts | 331° |
| 2026-05-07 09:10 | 45.89514 | 20.26762 | 36039 ft | 452 kts | 330° |
| 2026-05-07 09:11 | 45.95267 | 20.23063 | 36043 ft | 454 kts | 330° |
| 2026-05-07 09:11 | 46.01038 | 20.19344 | 36048 ft | 455 kts | 330° |
| 2026-05-07 09:12 | 46.06819 | 20.15609 | 36038 ft | 456 kts | 330° |
| 2026-05-07 09:12 | 46.12608 | 20.11862 | 36032 ft | 457 kts | 330° |
| 2026-05-07 09:13 | 46.18607 | 20.08710 | 36015 ft | 466 kts | 345° |
| 2026-05-07 09:13 | 46.24973 | 20.07233 | 36030 ft | 467 kts | 347° |
| 2026-05-07 09:14 | 46.31408 | 20.05868 | 36023 ft | 467 kts | 347° |
| 2026-05-07 09:14 | 46.37830 | 20.04443 | 36021 ft | 466 kts | 346° |
| 2026-05-07 09:15 | 46.44228 | 20.02969 | 36021 ft | 465 kts | 346° |
| 2026-05-07 09:15 | 46.50615 | 20.01479 | 36016 ft | 465 kts | 346° |
| 2026-05-07 09:16 | 46.56991 | 19.99987 | 36007 ft | 464 kts | 346° |
| 2026-05-07 09:16 | 46.63359 | 19.98495 | 36009 ft | 463 kts | 346° |
| 2026-05-07 09:17 | 46.69717 | 19.97004 | 36020 ft | 462 kts | 346° |
| 2026-05-07 09:17 | 46.76060 | 19.95512 | 36011 ft | 462 kts | 346° |
| 2026-05-07 09:18 | 46.82401 | 19.94018 | 36038 ft | 461 kts | 346° |
| 2026-05-07 09:18 | 46.88730 | 19.92522 | 36023 ft | 461 kts | 346° |
| 2026-05-07 09:19 | 46.95068 | 19.91021 | 36021 ft | 461 kts | 346° |
| 2026-05-07 09:19 | 47.01399 | 19.89517 | 36015 ft | 461 kts | 346° |
| 2026-05-07 09:20 | 47.07731 | 19.88011 | 36010 ft | 461 kts | 346° |
| 2026-05-07 09:20 | 47.14060 | 19.86501 | 35990 ft | 461 kts | 346° |
| 2026-05-07 09:21 | 47.20392 | 19.84987 | 35983 ft | 461 kts | 346° |
| 2026-05-07 09:21 | 47.26722 | 19.83469 | 35988 ft | 461 kts | 346° |
| 2026-05-07 09:22 | 47.33066 | 19.81944 | 35989 ft | 462 kts | 346° |
| 2026-05-07 09:22 | 47.39410 | 19.80416 | 35980 ft | 466 kts | 346° |
| 2026-05-07 09:23 | 47.45859 | 19.78855 | 35993 ft | 472 kts | 346° |
| 2026-05-07 09:23 | 47.52379 | 19.77276 | 35986 ft | 478 kts | 346° |
| 2026-05-07 09:24 | 47.58919 | 19.75690 | 35988 ft | 481 kts | 346° |
| 2026-05-07 09:24 | 47.65529 | 19.74084 | 35975 ft | 482 kts | 346° |
| 2026-05-07 09:25 | 47.72155 | 19.72469 | 35970 ft | 482 kts | 346° |
| 2026-05-07 09:25 | 47.78780 | 19.70850 | 35979 ft | 482 kts | 346° |
| 2026-05-07 09:26 | 47.85408 | 19.69224 | 35980 ft | 483 kts | 346° |
| 2026-05-07 09:26 | 47.92025 | 19.67598 | 35971 ft | 482 kts | 346° |
| 2026-05-07 09:27 | 47.98628 | 19.65971 | 35968 ft | 480 kts | 346° |
| 2026-05-07 09:28 | 48.08511 | 19.63526 | 35968 ft | 479 kts | 346° |
| 2026-05-07 09:28 | 48.15085 | 19.61895 | 35967 ft | 478 kts | 346° |
| 2026-05-07 09:29 | 48.21651 | 19.60262 | 35969 ft | 478 kts | 346° |
| 2026-05-07 09:29 | 48.28289 | 19.59154 | 35975 ft | 482 kts | 353° |
| 2026-05-07 09:30 | 48.34998 | 19.58656 | 35961 ft | 483 kts | 353° |
| 2026-05-07 09:30 | 48.41710 | 19.58085 | 35969 ft | 483 kts | 352° |
| 2026-05-07 09:31 | 48.48426 | 19.57418 | 35960 ft | 484 kts | 352° |
| 2026-05-07 09:31 | 48.55151 | 19.56767 | 35963 ft | 485 kts | 352° |
| 2026-05-07 09:32 | 48.61889 | 19.56158 | 35959 ft | 485 kts | 353° |
| 2026-05-07 09:32 | 48.68631 | 19.55550 | 35961 ft | 485 kts | 353° |
| 2026-05-07 09:33 | 48.75325 | 19.54938 | 35949 ft | 485 kts | 353° |
| 2026-05-07 09:33 | 48.82120 | 19.54313 | 35968 ft | 487 kts | 353° |
| 2026-05-07 09:34 | 48.88849 | 19.53690 | 35958 ft | 488 kts | 353° |
| 2026-05-07 09:34 | 48.95635 | 19.53062 | 35955 ft | 488 kts | 353° |
| 2026-05-07 09:35 | 49.02427 | 19.52430 | 35952 ft | 490 kts | 353° |
| 2026-05-07 09:35 | 49.09236 | 19.51796 | 35943 ft | 490 kts | 353° |
| 2026-05-07 09:36 | 49.16043 | 19.51161 | 35948 ft | 490 kts | 353° |
| 2026-05-07 09:36 | 49.22857 | 19.50524 | 35935 ft | 491 kts | 353° |
| 2026-05-07 09:37 | 49.29673 | 19.49884 | 35938 ft | 491 kts | 353° |
| 2026-05-07 09:37 | 49.36493 | 19.49242 | 35941 ft | 491 kts | 353° |
| 2026-05-07 09:38 | 49.43312 | 19.48598 | 35934 ft | 491 kts | 353° |
| 2026-05-07 09:38 | 49.50144 | 19.47950 | 35927 ft | 492 kts | 353° |
| 2026-05-07 09:39 | 49.56978 | 19.47302 | 35925 ft | 492 kts | 353° |
| 2026-05-07 09:39 | 49.63737 | 19.46312 | 35921 ft | 489 kts | 345° |
| 2026-05-07 09:40 | 49.70375 | 19.44125 | 35914 ft | 488 kts | 342° |
| 2026-05-07 09:40 | 49.76985 | 19.41756 | 35912 ft | 488 kts | 342° |
| 2026-05-07 09:41 | 49.83605 | 19.39466 | 35927 ft | 487 kts | 343° |
| 2026-05-07 09:41 | 49.90237 | 19.37224 | 35921 ft | 489 kts | 343° |
| 2026-05-07 09:42 | 49.96887 | 19.34993 | 35917 ft | 489 kts | 343° |
| 2026-05-07 09:42 | 50.03551 | 19.32755 | 35911 ft | 490 kts | 343° |
| 2026-05-07 09:43 | 50.10219 | 19.30507 | 35908 ft | 490 kts | 343° |
| 2026-05-07 09:43 | 50.16890 | 19.28250 | 35904 ft | 491 kts | 343° |
| 2026-05-07 09:44 | 50.23567 | 19.25983 | 35909 ft | 491 kts | 343° |
| 2026-05-07 09:44 | 50.30250 | 19.23708 | 35905 ft | 492 kts | 343° |
| 2026-05-07 09:45 | 50.36947 | 19.21422 | 35913 ft | 493 kts | 343° |
| 2026-05-07 09:45 | 50.43652 | 19.19126 | 35918 ft | 493 kts | 343° |
| 2026-05-07 09:46 | 50.50365 | 19.16821 | 35913 ft | 494 kts | 343° |
| 2026-05-07 09:46 | 50.57085 | 19.14507 | 35913 ft | 494 kts | 343° |
| 2026-05-07 09:47 | 50.62667 | 19.12580 | 35903 ft | 494 kts | 343° |
| 2026-05-07 09:47 | 50.69085 | 19.10359 | 35902 ft | 494 kts | 343° |
| 2026-05-07 09:48 | 50.75651 | 19.08079 | 35907 ft | 494 kts | 343° |
| 2026-05-07 09:48 | 50.82372 | 19.05739 | 35916 ft | 495 kts | 343° |
| 2026-05-07 09:49 | 50.88783 | 19.03501 | 35910 ft | 494 kts | 343° |
| 2026-05-07 09:49 | 50.95503 | 19.01147 | 35909 ft | 494 kts | 343° |
| 2026-05-07 09:50 | 51.02217 | 18.98789 | 35916 ft | 494 kts | 343° |
| 2026-05-07 09:50 | 51.08928 | 18.96425 | 35911 ft | 494 kts | 343° |
| 2026-05-07 09:51 | 51.15638 | 18.94054 | 35915 ft | 494 kts | 343° |
| 2026-05-07 09:51 | 51.22349 | 18.91676 | 35928 ft | 494 kts | 342° |
| 2026-05-07 09:52 | 51.29053 | 18.89294 | 35931 ft | 494 kts | 342° |
| 2026-05-07 09:52 | 51.35763 | 18.86901 | 35929 ft | 494 kts | 342° |
| 2026-05-07 09:53 | 51.42463 | 18.84506 | 35928 ft | 493 kts | 342° |
| 2026-05-07 09:53 | 51.49162 | 18.82103 | 35934 ft | 493 kts | 342° |
| 2026-05-07 09:54 | 51.55846 | 18.79699 | 35937 ft | 492 kts | 342° |
| 2026-05-07 09:54 | 51.62526 | 18.77289 | 35938 ft | 492 kts | 342° |
| 2026-05-07 09:55 | 51.69196 | 18.74875 | 35932 ft | 491 kts | 342° |
| 2026-05-07 09:55 | 51.75863 | 18.72455 | 35966 ft | 491 kts | 342° |
| 2026-05-07 09:56 | 51.82519 | 18.70032 | 35946 ft | 490 kts | 342° |
| 2026-05-07 09:56 | 51.89173 | 18.67601 | 35941 ft | 490 kts | 342° |
| 2026-05-07 09:57 | 51.95774 | 18.65183 | 35956 ft | 490 kts | 342° |
| 2026-05-07 09:57 | 52.02422 | 18.62740 | 35952 ft | 490 kts | 342° |
| 2026-05-07 09:58 | 52.09070 | 18.60290 | 35942 ft | 490 kts | 342° |
| 2026-05-07 09:58 | 52.15708 | 18.57837 | 35952 ft | 489 kts | 342° |
| 2026-05-07 09:59 | 52.22347 | 18.55374 | 35990 ft | 489 kts | 342° |
| 2026-05-07 09:59 | 52.28988 | 18.52904 | 35964 ft | 489 kts | 342° |
| 2026-05-07 10:00 | 52.35626 | 18.50428 | 35971 ft | 490 kts | 342° |
| 2026-05-07 10:00 | 52.42278 | 18.47938 | 35958 ft | 489 kts | 342° |
| 2026-05-07 10:01 | 52.48907 | 18.45450 | 35955 ft | 488 kts | 342° |
| 2026-05-07 10:01 | 52.55527 | 18.42957 | 35962 ft | 488 kts | 342° |
| 2026-05-07 10:02 | 52.62137 | 18.40461 | 35955 ft | 487 kts | 342° |
| 2026-05-07 10:02 | 52.68742 | 18.37958 | 35954 ft | 487 kts | 342° |
| 2026-05-07 10:03 | 52.75339 | 18.35450 | 35963 ft | 487 kts | 342° |
| 2026-05-07 10:03 | 52.81939 | 18.32933 | 35961 ft | 487 kts | 342° |
| 2026-05-07 10:04 | 52.88542 | 18.30408 | 35963 ft | 487 kts | 342° |
| 2026-05-07 10:04 | 52.95150 | 18.27873 | 35970 ft | 487 kts | 342° |
| 2026-05-07 10:05 | 53.01757 | 18.25330 | 35962 ft | 488 kts | 342° |
| 2026-05-07 10:05 | 53.08367 | 18.22778 | 35966 ft | 488 kts | 342° |
| 2026-05-07 10:06 | 53.14987 | 18.20214 | 35968 ft | 488 kts | 342° |
| 2026-05-07 10:06 | 53.21608 | 18.17641 | 36001 ft | 489 kts | 342° |
| 2026-05-07 10:07 | 53.28239 | 18.15057 | 35971 ft | 489 kts | 342° |
| 2026-05-07 10:07 | 53.34866 | 18.12465 | 35968 ft | 489 kts | 342° |
| 2026-05-07 10:08 | 53.41492 | 18.09866 | 35978 ft | 489 kts | 342° |
| 2026-05-07 10:08 | 53.48119 | 18.07258 | 35979 ft | 489 kts | 342° |
| 2026-05-07 10:09 | 53.54708 | 18.04657 | 35979 ft | 489 kts | 342° |
| 2026-05-07 10:09 | 53.61335 | 18.02032 | 35981 ft | 489 kts | 342° |
| 2026-05-07 10:10 | 53.67967 | 17.99397 | 35983 ft | 490 kts | 342° |
| 2026-05-07 10:10 | 53.74608 | 17.96750 | 35996 ft | 491 kts | 342° |
| 2026-05-07 10:11 | 53.81251 | 17.94093 | 35995 ft | 491 kts | 342° |
| 2026-05-07 10:11 | 53.87900 | 17.91425 | 35988 ft | 491 kts | 342° |
| 2026-05-07 10:12 | 53.94548 | 17.88749 | 36008 ft | 491 kts | 342° |
| 2026-05-07 10:12 | 54.01181 | 17.86051 | 35993 ft | 490 kts | 342° |
| 2026-05-07 10:13 | 54.07804 | 17.83311 | 35995 ft | 490 kts | 342° |
| 2026-05-07 10:13 | 54.14423 | 17.80560 | 35999 ft | 489 kts | 342° |
| 2026-05-07 10:14 | 54.21032 | 17.77809 | 36014 ft | 489 kts | 341° |
| 2026-05-07 10:14 | 54.27643 | 17.75051 | 36009 ft | 489 kts | 342° |
| 2026-05-07 10:15 | 54.34243 | 17.72290 | 36013 ft | 488 kts | 341° |
| 2026-05-07 10:15 | 54.40839 | 17.69520 | 36015 ft | 488 kts | 341° |
| 2026-05-07 10:16 | 54.47383 | 17.66764 | 36017 ft | 487 kts | 341° |
| 2026-05-07 10:16 | 54.53960 | 17.63984 | 36028 ft | 486 kts | 341° |
| 2026-05-07 10:17 | 54.60527 | 17.61200 | 36025 ft | 485 kts | 341° |
| 2026-05-07 10:17 | 54.67073 | 17.58415 | 36026 ft | 484 kts | 341° |
| 2026-05-07 10:18 | 54.73605 | 17.55626 | 36061 ft | 483 kts | 342° |
| 2026-05-07 10:18 | 54.80131 | 17.52830 | 36040 ft | 483 kts | 341° |
| 2026-05-07 10:19 | 54.86653 | 17.50028 | 36036 ft | 482 kts | 341° |
| 2026-05-07 10:19 | 54.93160 | 17.47222 | 36035 ft | 482 kts | 341° |
| 2026-05-07 10:20 | 54.99670 | 17.44406 | 36042 ft | 481 kts | 341° |
| 2026-05-07 10:20 | 55.06168 | 17.41585 | 36067 ft | 481 kts | 341° |
| 2026-05-07 10:21 | 55.12672 | 17.38752 | 36047 ft | 482 kts | 341° |
| 2026-05-07 10:21 | 55.19185 | 17.35905 | 36045 ft | 482 kts | 341° |
| 2026-05-07 10:22 | 55.25697 | 17.33050 | 36070 ft | 483 kts | 341° |
| 2026-05-07 10:22 | 55.32215 | 17.30183 | 36054 ft | 483 kts | 341° |
| 2026-05-07 10:23 | 55.38735 | 17.27304 | 36062 ft | 483 kts | 341° |
| 2026-05-07 10:23 | 55.45254 | 17.24417 | 36052 ft | 483 kts | 341° |
| 2026-05-07 10:24 | 55.51767 | 17.21521 | 36046 ft | 483 kts | 341° |
| 2026-05-07 10:24 | 55.58276 | 17.18618 | 36058 ft | 482 kts | 341° |
| 2026-05-07 10:25 | 55.64947 | 17.16871 | 36079 ft | 491 kts | 356° |
| 2026-05-07 10:25 | 55.71747 | 17.18088 | 36062 ft | 496 kts | 4° |
| 2026-05-07 10:26 | 55.78588 | 17.19674 | 36057 ft | 496 kts | 3° |
| 2026-05-07 10:26 | 55.85429 | 17.21194 | 36059 ft | 495 kts | 3° |
| 2026-05-07 10:27 | 55.92269 | 17.22649 | 36069 ft | 495 kts | 2° |
| 2026-05-07 10:27 | 55.99113 | 17.24084 | 36040 ft | 495 kts | 3° |
| 2026-05-07 10:28 | 56.05944 | 17.25522 | 36076 ft | 493 kts | 3° |
| 2026-05-07 10:28 | 56.12750 | 17.26965 | 36055 ft | 492 kts | 3° |
| 2026-05-07 10:29 | 56.19537 | 17.28410 | 36067 ft | 491 kts | 3° |
| 2026-05-07 10:29 | 56.26312 | 17.29857 | 36060 ft | 490 kts | 3° |
| 2026-05-07 10:30 | 56.36444 | 17.32031 | 36068 ft | 489 kts | 3° |
| 2026-05-07 10:30 | 56.43200 | 17.33487 | 36069 ft | 489 kts | 3° |
| 2026-05-07 10:31 | 56.49957 | 17.34949 | 36072 ft | 489 kts | 3° |
| 2026-05-07 10:31 | 56.56715 | 17.36416 | 36065 ft | 489 kts | 3° |
| 2026-05-07 10:32 | 56.63476 | 17.37889 | 36069 ft | 489 kts | 3° |
| 2026-05-07 10:32 | 56.70235 | 17.39367 | 36068 ft | 489 kts | 3° |
| 2026-05-07 10:33 | 56.76996 | 17.40851 | 36076 ft | 490 kts | 2° |
| 2026-05-07 10:33 | 56.83761 | 17.42341 | 36066 ft | 490 kts | 2° |
| 2026-05-07 10:34 | 56.90524 | 17.43837 | 36063 ft | 490 kts | 3° |
| 2026-05-07 10:34 | 56.96144 | 17.45083 | 36069 ft | 490 kts | 3° |
| 2026-05-07 10:35 | 57.04007 | 17.46834 | 36075 ft | 490 kts | 2° |
| 2026-05-07 10:35 | 57.10771 | 17.48346 | 36069 ft | 490 kts | 2° |
| 2026-05-07 10:36 | 57.17534 | 17.49863 | 36074 ft | 489 kts | 2° |
| 2026-05-07 10:36 | 57.23151 | 17.51127 | 36073 ft | 489 kts | 2° |
| 2026-05-07 10:37 | 57.29913 | 17.52654 | 36079 ft | 490 kts | 2° |
| 2026-05-07 10:37 | 57.36677 | 17.54188 | 36074 ft | 490 kts | 2° |
| 2026-05-07 10:38 | 57.43450 | 17.55729 | 36074 ft | 490 kts | 2° |
| 2026-05-07 10:38 | 57.50215 | 17.57274 | 36076 ft | 490 kts | 2° |
| 2026-05-07 10:39 | 57.56921 | 17.58817 | 36053 ft | 475 kts | 2° |
| 2026-05-07 10:39 | 57.60158 | 17.59571 | 35957 ft | 463 kts | 2° |
| 2026-05-07 10:39 | 57.63328 | 17.60307 | 35626 ft | 455 kts | 2° |
| 2026-05-07 10:40 | 57.66458 | 17.61030 | 35260 ft | 451 kts | 2° |
| 2026-05-07 10:40 | 57.69561 | 17.61744 | 34883 ft | 448 kts | 2° |
| 2026-05-07 10:40 | 57.72635 | 17.62452 | 34504 ft | 444 kts | 1° |
| 2026-05-07 10:40 | 57.75699 | 17.63159 | 34124 ft | 442 kts | 1° |
| 2026-05-07 10:41 | 57.78741 | 17.63863 | 33648 ft | 439 kts | 1° |
| 2026-05-07 10:41 | 57.81762 | 17.64565 | 33276 ft | 436 kts | 1° |
| 2026-05-07 10:41 | 57.84759 | 17.65263 | 32851 ft | 433 kts | 1° |
| 2026-05-07 10:41 | 57.87738 | 17.65959 | 32466 ft | 429 kts | 1° |
| 2026-05-07 10:42 | 57.90683 | 17.66648 | 32083 ft | 426 kts | 1° |
| 2026-05-07 10:42 | 57.93614 | 17.67335 | 31713 ft | 422 kts | 1° |
| 2026-05-07 10:42 | 57.96519 | 17.68016 | 31345 ft | 419 kts | 1° |
| 2026-05-07 10:42 | 57.99397 | 17.68693 | 30983 ft | 416 kts | 1° |
| 2026-05-07 10:43 | 58.02251 | 17.69419 | 30718 ft | 411 kts | 3° |
| 2026-05-07 10:43 | 58.05057 | 17.70293 | 30434 ft | 407 kts | 4° |
| 2026-05-07 10:43 | 58.07856 | 17.71226 | 29865 ft | 410 kts | 4° |
| 2026-05-07 10:43 | 58.10658 | 17.72177 | 29433 ft | 408 kts | 4° |
| 2026-05-07 10:44 | 58.13442 | 17.73120 | 29049 ft | 404 kts | 4° |
| 2026-05-07 10:44 | 58.16195 | 17.74043 | 28662 ft | 400 kts | 4° |
| 2026-05-07 10:44 | 58.18928 | 17.74949 | 28251 ft | 397 kts | 4° |
| 2026-05-07 10:44 | 58.21642 | 17.75841 | 27834 ft | 395 kts | 4° |
| 2026-05-07 10:45 | 58.24333 | 17.76721 | 27445 ft | 392 kts | 4° |
| 2026-05-07 10:45 | 58.27015 | 17.77597 | 27060 ft | 389 kts | 4° |
| 2026-05-07 10:45 | 58.29673 | 17.78466 | 26682 ft | 386 kts | 4° |
| 2026-05-07 10:45 | 58.32314 | 17.79330 | 26306 ft | 384 kts | 4° |
| 2026-05-07 10:46 | 58.34941 | 17.80190 | 25936 ft | 381 kts | 4° |
| 2026-05-07 10:46 | 58.37548 | 17.81046 | 25617 ft | 378 kts | 4° |
| 2026-05-07 10:46 | 58.40118 | 17.81891 | 25281 ft | 375 kts | 4° |
| 2026-05-07 10:46 | 58.42682 | 17.82735 | 24925 ft | 373 kts | 4° |
| 2026-05-07 10:47 | 58.45239 | 17.83577 | 24564 ft | 371 kts | 4° |
| 2026-05-07 10:47 | 58.47777 | 17.84415 | 24218 ft | 369 kts | 4° |
| 2026-05-07 10:47 | 58.50301 | 17.85249 | 23882 ft | 367 kts | 4° |
| 2026-05-07 10:47 | 58.52807 | 17.86079 | 23526 ft | 365 kts | 4° |
| 2026-05-07 10:48 | 58.55298 | 17.86905 | 23133 ft | 362 kts | 4° |
| 2026-05-07 10:48 | 58.57774 | 17.87727 | 22759 ft | 360 kts | 4° |
| 2026-05-07 10:48 | 58.60230 | 17.88544 | 22383 ft | 357 kts | 4° |
| 2026-05-07 10:48 | 58.62672 | 17.89357 | 22006 ft | 355 kts | 4° |
| 2026-05-07 10:49 | 58.65101 | 17.90167 | 21602 ft | 355 kts | 4° |
| 2026-05-07 10:49 | 58.67538 | 17.90978 | 21169 ft | 355 kts | 4° |
| 2026-05-07 10:49 | 58.69961 | 17.91788 | 20804 ft | 352 kts | 4° |
| 2026-05-07 10:49 | 58.72368 | 17.92595 | 20470 ft | 350 kts | 4° |
| 2026-05-07 10:50 | 58.74758 | 17.93397 | 20136 ft | 347 kts | 4° |
| 2026-05-07 10:50 | 58.77124 | 17.94192 | 19808 ft | 345 kts | 4° |
| 2026-05-07 10:50 | 58.79480 | 17.94985 | 19486 ft | 342 kts | 5° |
| 2026-05-07 10:50 | 58.81818 | 17.95773 | 19178 ft | 340 kts | 5° |
| 2026-05-07 10:51 | 58.84141 | 17.96556 | 18838 ft | 338 kts | 5° |
| 2026-05-07 10:51 | 58.86448 | 17.97335 | 18519 ft | 336 kts | 5° |
| 2026-05-07 10:51 | 58.88740 | 17.98109 | 18177 ft | 334 kts | 5° |
| 2026-05-07 10:51 | 58.90989 | 17.98871 | 17829 ft | 331 kts | 5° |
| 2026-05-07 10:52 | 58.93249 | 17.99638 | 17518 ft | 328 kts | 5° |
| 2026-05-07 10:52 | 58.95491 | 18.00399 | 17194 ft | 326 kts | 4° |
| 2026-05-07 10:52 | 58.97714 | 18.01155 | 16888 ft | 322 kts | 5° |
| 2026-05-07 10:52 | 58.99913 | 18.01904 | 16581 ft | 320 kts | 5° |
| 2026-05-07 10:53 | 59.02097 | 18.02649 | 16270 ft | 317 kts | 5° |
| 2026-05-07 10:53 | 59.04259 | 18.03386 | 15959 ft | 315 kts | 5° |
| 2026-05-07 10:53 | 59.06417 | 18.04123 | 15614 ft | 314 kts | 5° |
| 2026-05-07 10:53 | 59.08572 | 18.04859 | 15241 ft | 315 kts | 5° |
| 2026-05-07 10:54 | 59.10719 | 18.05593 | 14928 ft | 313 kts | 5° |
| 2026-05-07 10:54 | 59.12860 | 18.06327 | 14629 ft | 311 kts | 5° |
| 2026-05-07 10:54 | 59.14982 | 18.07057 | 14317 ft | 309 kts | 5° |
| 2026-05-07 10:54 | 59.17094 | 18.07784 | 14009 ft | 307 kts | 5° |
| 2026-05-07 10:55 | 59.19194 | 18.08507 | 13705 ft | 306 kts | 5° |
| 2026-05-07 10:55 | 59.21284 | 18.09227 | 13337 ft | 305 kts | 5° |
| 2026-05-07 10:55 | 59.23376 | 18.09948 | 12985 ft | 305 kts | 5° |
| 2026-05-07 10:55 | 59.25455 | 18.10667 | 12700 ft | 302 kts | 5° |
| 2026-05-07 10:56 | 59.27517 | 18.11380 | 12394 ft | 300 kts | 5° |
| 2026-05-07 10:56 | 59.29567 | 18.12091 | 12075 ft | 299 kts | 5° |
| 2026-05-07 10:56 | 59.31606 | 18.12798 | 11767 ft | 297 kts | 5° |
| 2026-05-07 10:56 | 59.33640 | 18.13361 | 11505 ft | 293 kts | 1° |
| 2026-05-07 10:57 | 59.35661 | 18.13738 | 11244 ft | 291 kts | 0° |
| 2026-05-07 10:57 | 59.37676 | 18.14075 | 10995 ft | 291 kts | 0° |
| 2026-05-07 10:57 | 59.39690 | 18.14414 | 10733 ft | 290 kts | 1° |
| 2026-05-07 10:57 | 59.41699 | 18.14763 | 10494 ft | 289 kts | 1° |
| 2026-05-07 10:58 | 59.43693 | 18.15120 | 10291 ft | 285 kts | 1° |
| 2026-05-07 10:58 | 59.45635 | 18.15477 | 10189 ft | 276 kts | 1° |
| 2026-05-07 10:58 | 59.47502 | 18.15825 | 10041 ft | 270 kts | 1° |
| 2026-05-07 10:58 | 59.49368 | 18.16173 | 9785 ft | 269 kts | 1° |
| 2026-05-07 10:59 | 59.51229 | 18.16515 | 9500 ft | 268 kts | 1° |
| 2026-05-07 10:59 | 59.53075 | 18.16862 | 9243 ft | 265 kts | 2° |
| 2026-05-07 10:59 | 59.54905 | 18.17209 | 8982 ft | 264 kts | 2° |
| 2026-05-07 10:59 | 59.56711 | 18.17555 | 8878 ft | 255 kts | 2° |
| 2026-05-07 11:00 | 59.58467 | 18.17890 | 8681 ft | 252 kts | 2° |
| 2026-05-07 11:00 | 59.60205 | 18.18220 | 8435 ft | 252 kts | 2° |
| 2026-05-07 11:00 | 59.61963 | 18.18551 | 8196 ft | 256 kts | 2° |
| 2026-05-07 11:00 | 59.63754 | 18.18893 | 7959 ft | 262 kts | 2° |
| 2026-05-07 11:01 | 59.65579 | 18.19238 | 7689 ft | 263 kts | 2° |
| 2026-05-07 11:01 | 59.67397 | 18.19586 | 7417 ft | 262 kts | 3° |
| 2026-05-07 11:01 | 59.69203 | 18.19932 | 7176 ft | 260 kts | 3° |
| 2026-05-07 11:01 | 59.71000 | 18.20278 | 6905 ft | 259 kts | 3° |
| 2026-05-07 11:02 | 59.72788 | 18.20624 | 6644 ft | 257 kts | 4° |
| 2026-05-07 11:02 | 59.74566 | 18.20964 | 6384 ft | 257 kts | 3° |
| 2026-05-07 11:02 | 59.76342 | 18.21306 | 6100 ft | 256 kts | 3° |
| 2026-05-07 11:02 | 59.78120 | 18.21644 | 5819 ft | 257 kts | 3° |
| 2026-05-07 11:03 | 59.79902 | 18.21986 | 5509 ft | 257 kts | 4° |
| 2026-05-07 11:03 | 59.81661 | 18.22320 | 5375 ft | 250 kts | 3° |
| 2026-05-07 11:03 | 59.83388 | 18.22171 | 4938 ft | 252 kts | 337° |
| 2026-05-07 11:03 | 59.84718 | 18.20090 | 4676 ft | 244 kts | 300° |
| 2026-05-07 11:04 | 59.85484 | 18.17148 | 4536 ft | 236 kts | 295° |
| 2026-05-07 11:04 | 59.86218 | 18.14264 | 4398 ft | 230 kts | 295° |
| 2026-05-07 11:04 | 59.86862 | 18.11408 | 4310 ft | 224 kts | 291° |
| 2026-05-07 11:04 | 59.87382 | 18.08540 | 4190 ft | 218 kts | 277° |
| 2026-05-07 11:05 | 59.87190 | 18.05646 | 4152 ft | 207 kts | 247° |
| 2026-05-07 11:05 | 59.86360 | 18.03254 | 3847 ft | 214 kts | 224° |
| 2026-05-07 11:05 | 59.85243 | 18.01286 | 3606 ft | 215 kts | 220° |
| 2026-05-07 11:05 | 59.84097 | 17.99358 | 3357 ft | 215 kts | 218° |
| 2026-05-07 11:06 | 59.82736 | 17.98305 | 3156 ft | 210 kts | 188° |
| 2026-05-07 11:06 | 59.81329 | 17.97791 | 2959 ft | 202 kts | 197° |
| 2026-05-07 11:06 | 59.80046 | 17.96807 | 2759 ft | 193 kts | 200° |
| 2026-05-07 11:06 | 59.78739 | 17.96413 | 2545 ft | 191 kts | 184° |
| 2026-05-07 11:07 | 59.77417 | 17.96308 | 2227 ft | 189 kts | 184° |
| 2026-05-07 11:07 | 59.76180 | 17.96690 | 2186 ft | 175 kts | 147° |
| 2026-05-07 11:07 | 59.75523 | 17.98687 | 2265 ft | 181 kts | 107° |
| 2026-05-07 11:07 | 59.75138 | 18.00900 | 2297 ft | 159 kts | 143° |
| 2026-05-07 11:08 | 59.74104 | 18.01070 | 2147 ft | 158 kts | 198° |
| 2026-05-07 11:08 | 59.73154 | 17.99948 | 1771 ft | 164 kts | 218° |
| 2026-05-07 11:08 | 59.72321 | 17.98564 | 1584 ft | 147 kts | 218° |
| 2026-05-07 11:08 | 59.71432 | 17.97799 | 1471 ft | 146 kts | 184° |
| 2026-05-07 11:09 | 59.70405 | 17.97659 | 1398 ft | 149 kts | 184° |
| 2026-05-07 11:09 | 59.69361 | 17.97449 | 1406 ft | 153 kts | 186° |
| 2026-05-07 11:09 | 59.68300 | 17.97109 | 1176 ft | 154 kts | 188° |
| 2026-05-07 11:09 | 59.67263 | 17.96748 | 957 ft | 152 kts | 188° |
| 2026-05-07 11:10 | 59.66244 | 17.96406 | 595 ft | 142 kts | 191° |
| 2026-05-07 11:10 | 59.65301 | 17.96055 | 279 ft | 133 kts | 192° |
| 2026-05-07 11:10 | 59.64458 | 17.95739 | 143 ft | 98 kts | 189° |
| 2026-05-07 11:10 | 59.64041 | 17.95590 | 143 ft | 49 kts | 191° |
| 2026-05-07 11:11 | 59.63730 | 17.95473 | 144 ft | 42 kts | 190° |
| 2026-05-07 11:11 | 59.63479 | 17.95362 | 143 ft | 34 kts | 204° |
| 2026-05-07 11:11 | 59.63291 | 17.95111 | 137 ft | 27 kts | 219° |
| 2026-05-07 11:11 | 59.63268 | 17.94909 | 137 ft | 10 kts | 347° |
| 2026-05-07 11:12 | 59.63337 | 17.94929 | 137 ft | 10 kts | 17° |
| 2026-05-07 11:12 | 59.63404 | 17.94954 | 137 ft | 10 kts | 6° |
| 2026-05-07 11:12 | 59.63472 | 17.94968 | 137 ft | 10 kts | 6° |
| 2026-05-07 11:12 | 59.63532 | 17.94980 | 137 ft | 9 kts | 6° |
| 2026-05-07 11:13 | 59.63595 | 17.94997 | 137 ft | 9 kts | 17° |
| 2026-05-07 11:13 | 59.63653 | 17.95028 | 137 ft | 9 kts | 13° |
| 2026-05-07 11:13 | 59.63712 | 17.95055 | 137 ft | 9 kts | 13° |
| 2026-05-07 11:13 | 59.63769 | 17.95079 | 137 ft | 8 kts | 12° |
| 2026-05-07 11:14 | 59.63825 | 17.95102 | 137 ft | 8 kts | 11° |
| 2026-05-07 11:14 | 59.63880 | 17.95120 | 137 ft | 8 kts | 9° |
| 2026-05-07 11:14 | 59.63933 | 17.95136 | 137 ft | 8 kts | 9° |
| 2026-05-07 11:14 | 59.63984 | 17.95153 | 137 ft | 7 kts | 9° |
| 2026-05-07 11:15 | 59.64027 | 17.95166 | 137 ft | 7 kts | 9° |